Aviation Digital Data Service (ADDS)

Output produced by METARs form (0510 UTC 20 October 2017)
found at http://aviationweather.gov/adds/metars/
 
KPHX 200239Z 2003/2106 25006KT P6SM FEW150 SCT250 
     FM200800 16008KT P6SM SCT250 
     FM201600 22010KT P6SM FEW250 
     FM202100 25015KT P6SM FEW250